Time,TemperatureF,DewpointF,PressureIn,WindDirection,WindDirectionDegrees,WindSpeedMPH,WindSpeedGustMPH,Humidity,HourlyPrecipIn,Conditions,Clouds,dailyrainin,SoftwareType,DateUTC
2013-04-13 00:00:00,32.2,27.6,29.86,East,90,0.0,0.0,83,0.00,,,0.00,WUHU21623XXSP,2013-04-13 04:00:00,
2013-04-13 00:05:00,32.2,27.6,29.86,East,90,0.0,0.0,83,0.00,,,0.00,WUHU21623XXSP,2013-04-13 04:05:00,
2013-04-13 00:10:00,32.0,27.4,29.87,East,90,0.0,0.0,83,0.00,,,0.00,WUHU21623XXSP,2013-04-13 04:10:00,
2013-04-13 00:15:00,32.0,27.4,29.86,East,90,0.0,0.0,83,0.00,,,0.00,WUHU21623XXSP,2013-04-13 04:15:00,
2013-04-13 00:20:00,32.0,27.4,29.86,East,90,0.0,0.0,83,0.00,,,0.00,WUHU21623XXSP,2013-04-13 04:20:00,
2013-04-13 00:25:00,32.0,27.4,29.86,East,90,0.0,0.0,83,0.00,,,0.00,WUHU21623XXSP,2013-04-13 04:25:00,
2013-04-13 00:30:00,32.0,27.4,29.86,East,90,0.0,0.0,83,0.00,,,0.00,WUHU21623XXSP,2013-04-13 04:30:00,
2013-04-13 00:35:00,31.8,27.2,29.85,East,90,0.0,0.0,83,0.00,,,0.00,WUHU21623XXSP,2013-04-13 04:35:00,
2013-04-13 00:40:00,31.8,27.2,29.84,East,90,0.0,0.0,83,0.00,,,0.00,WUHU21623XXSP,2013-04-13 04:40:00,
2013-04-13 00:45:00,31.8,27.2,29.85,East,90,0.0,0.0,83,0.00,,,0.00,WUHU21623XXSP,2013-04-13 04:45:00,
2013-04-13 00:50:00,32.0,27.4,29.85,East,90,0.0,0.0,83,0.00,,,0.00,WUHU21623XXSP,2013-04-13 04:50:00,
2013-04-13 00:55:00,32.0,27.7,29.85,East,90,0.0,2.7,84,0.00,,,0.00,WUHU21623XXSP,2013-04-13 04:55:00,
2013-04-13 01:00:00,32.0,27.7,29.85,East,90,0.0,2.7,84,0.00,,,0.00,WUHU21623XXSP,2013-04-13 05:00:00,
2013-04-13 01:05:00,32.2,27.9,29.86,East,90,0.0,0.0,84,0.00,,,0.00,WUHU21623XXSP,2013-04-13 05:05:00,
2013-04-13 01:10:00,32.2,27.9,29.85,East,90,0.0,0.0,84,0.00,,,0.00,WUHU21623XXSP,2013-04-13 05:10:00,
2013-04-13 01:15:00,32.2,27.9,29.84,East,90,0.0,0.0,84,0.00,,,0.00,WUHU21623XXSP,2013-04-13 05:15:00,
2013-04-13 01:20:00,32.0,27.7,29.84,East,90,0.0,0.0,84,0.00,,,0.00,WUHU21623XXSP,2013-04-13 05:20:00,
2013-04-13 01:25:00,32.2,27.9,29.84,East,90,0.0,0.0,84,0.00,,,0.00,WUHU21623XXSP,2013-04-13 05:25:00,
2013-04-13 01:30:00,32.0,27.7,29.84,East,90,0.0,0.0,84,0.00,,,0.00,WUHU21623XXSP,2013-04-13 05:30:00,
2013-04-13 01:35:00,31.8,27.5,29.85,East,90,0.0,0.0,84,0.00,,,0.00,WUHU21623XXSP,2013-04-13 05:35:00,
2013-04-13 01:40:00,32.2,27.9,29.83,East,90,0.0,0.0,84,0.00,,,0.00,WUHU21623XXSP,2013-04-13 05:40:00,
2013-04-13 01:45:00,31.8,27.5,29.84,East,90,0.0,0.0,84,0.00,,,0.00,WUHU21623XXSP,2013-04-13 05:45:00,
2013-04-13 01:50:00,32.0,27.7,29.85,East,90,0.0,0.0,84,0.00,,,0.00,WUHU21623XXSP,2013-04-13 05:50:00,
2013-04-13 01:55:00,32.0,27.7,29.85,East,90,0.0,0.0,84,0.00,,,0.00,WUHU21623XXSP,2013-04-13 05:55:00,
2013-04-13 02:00:00,32.2,27.9,29.86,East,90,0.0,0.0,84,0.00,,,0.00,WUHU21623XXSP,2013-04-13 06:00:00,
2013-04-13 02:05:00,31.8,27.5,29.88,East,90,0.0,0.0,84,0.00,,,0.00,WUHU21623XXSP,2013-04-13 06:05:00,
2013-04-13 02:10:00,32.0,27.7,29.86,East,90,0.0,0.0,84,0.00,,,0.00,WUHU21623XXSP,2013-04-13 06:10:00,
2013-04-13 02:15:00,32.0,27.7,29.84,East,90,0.0,0.0,84,0.00,,,0.00,WUHU21623XXSP,2013-04-13 06:15:00,
2013-04-13 02:20:00,32.2,27.9,29.84,East,90,0.0,0.0,84,0.00,,,0.00,WUHU21623XXSP,2013-04-13 06:20:00,
2013-04-13 02:25:00,32.0,27.7,29.82,East,90,0.0,0.0,84,0.00,,,0.00,WUHU21623XXSP,2013-04-13 06:25:00,
2013-04-13 02:30:00,32.2,27.9,29.80,East,90,0.0,0.0,84,0.00,,,0.00,WUHU21623XXSP,2013-04-13 06:30:00,
2013-04-13 02:35:00,32.2,27.9,29.81,East,90,0.0,0.0,84,0.00,,,0.00,WUHU21623XXSP,2013-04-13 06:35:00,
2013-04-13 02:40:00,32.2,27.9,29.82,East,90,0.0,0.0,84,0.00,,,0.00,WUHU21623XXSP,2013-04-13 06:40:00,
2013-04-13 02:45:00,32.2,27.9,29.84,East,90,0.0,0.0,84,0.00,,,0.00,WUHU21623XXSP,2013-04-13 06:45:00,
2013-04-13 02:51:00,32.2,27.9,29.85,East,90,0.0,0.0,84,0.00,,,0.00,WUHU21623XXSP,2013-04-13 06:51:00,
2013-04-13 02:56:00,32.2,27.9,29.84,East,90,0.0,0.0,84,0.00,,,0.00,WUHU21623XXSP,2013-04-13 06:56:00,
2013-04-13 03:02:00,32.0,27.7,29.84,East,90,0.0,0.0,84,0.00,,,0.00,WUHU21623XXSP,2013-04-13 07:02:00,
2013-04-13 03:07:00,32.2,27.9,29.84,East,90,0.0,0.0,84,0.00,,,0.00,WUHU21623XXSP,2013-04-13 07:07:00,
2013-04-13 03:12:00,32.2,27.9,29.84,East,90,0.0,0.0,84,0.00,,,0.00,WUHU21623XXSP,2013-04-13 07:12:00,
2013-04-13 03:17:00,32.2,28.2,29.83,East,90,0.0,0.0,85,0.00,,,0.00,WUHU21623XXSP,2013-04-13 07:17:00,
2013-04-13 03:22:00,32.2,27.9,29.81,East,90,0.0,0.0,84,0.00,,,0.00,WUHU21623XXSP,2013-04-13 07:22:00,
2013-04-13 03:27:00,32.2,28.2,29.81,East,90,0.0,0.0,85,0.00,,,0.00,WUHU21623XXSP,2013-04-13 07:27:00,
2013-04-13 03:32:00,32.2,28.2,29.81,East,90,0.0,0.0,85,0.00,,,0.00,WUHU21623XXSP,2013-04-13 07:32:00,
2013-04-13 03:37:00,31.8,27.8,29.80,East,90,0.0,0.0,85,0.00,,,0.00,WUHU21623XXSP,2013-04-13 07:37:00,
2013-04-13 03:43:00,31.6,27.6,29.80,East,90,0.0,0.0,85,0.00,,,0.00,WUHU21623XXSP,2013-04-13 07:43:00,
2013-04-13 03:48:00,31.6,27.3,29.81,East,90,0.0,0.0,84,0.00,,,0.00,WUHU21623XXSP,2013-04-13 07:48:00,
2013-04-13 03:53:00,31.6,27.6,29.81,East,90,0.0,0.0,85,0.00,,,0.00,WUHU21623XXSP,2013-04-13 07:53:00,
2013-04-13 03:58:00,31.6,27.6,29.81,East,90,0.0,0.0,85,0.00,,,0.00,WUHU21623XXSP,2013-04-13 07:58:00,
2013-04-13 04:03:00,31.6,27.6,29.82,East,90,0.0,0.0,85,0.00,,,0.00,WUHU21623XXSP,2013-04-13 08:03:00,
2013-04-13 04:08:00,31.6,27.6,29.82,East,90,0.0,0.0,85,0.00,,,0.00,WUHU21623XXSP,2013-04-13 08:08:00,
2013-04-13 04:13:00,31.6,27.6,29.81,East,90,0.0,0.0,85,0.00,,,0.00,WUHU21623XXSP,2013-04-13 08:13:00,
2013-04-13 04:18:00,31.6,27.6,29.81,East,90,0.0,0.0,85,0.00,,,0.00,WUHU21623XXSP,2013-04-13 08:18:00,
2013-04-13 04:23:00,31.6,27.6,29.81,East,90,0.0,0.0,85,0.00,,,0.00,WUHU21623XXSP,2013-04-13 08:23:00,
2013-04-13 04:28:00,31.5,27.5,29.81,East,90,0.0,0.0,85,0.00,,,0.00,WUHU21623XXSP,2013-04-13 08:28:00,
2013-04-13 04:33:00,31.3,27.3,29.81,East,90,0.0,0.0,85,0.00,,,0.00,WUHU21623XXSP,2013-04-13 08:33:00,
2013-04-13 04:38:00,31.3,27.3,29.80,East,90,0.0,0.0,85,0.00,,,0.00,WUHU21623XXSP,2013-04-13 08:38:00,
2013-04-13 04:43:00,31.3,27.3,29.80,East,90,0.0,0.0,85,0.00,,,0.00,WUHU21623XXSP,2013-04-13 08:43:00,
2013-04-13 04:48:00,31.3,27.3,29.80,East,90,0.0,0.0,85,0.00,,,0.00,WUHU21623XXSP,2013-04-13 08:48:00,
2013-04-13 04:53:00,31.5,27.5,29.80,East,90,0.0,0.0,85,0.00,,,0.00,WUHU21623XXSP,2013-04-13 08:53:00,
2013-04-13 04:58:00,31.5,27.5,29.80,East,90,0.0,0.0,85,0.00,,,0.00,WUHU21623XXSP,2013-04-13 08:58:00,
2013-04-13 05:03:00,31.5,27.5,29.80,East,90,0.0,0.0,85,0.00,,,0.00,WUHU21623XXSP,2013-04-13 09:03:00,
2013-04-13 05:08:00,31.5,27.5,29.80,East,90,0.0,0.0,85,0.00,,,0.00,WUHU21623XXSP,2013-04-13 09:08:00,
2013-04-13 05:13:00,31.5,27.5,29.80,East,90,0.0,0.0,85,0.00,,,0.00,WUHU21623XXSP,2013-04-13 09:13:00,
2013-04-13 05:18:00,31.3,27.3,29.80,East,90,0.0,0.0,85,0.00,,,0.00,WUHU21623XXSP,2013-04-13 09:18:00,
2013-04-13 05:23:00,31.3,27.3,29.80,East,90,0.0,0.0,85,0.00,,,0.00,WUHU21623XXSP,2013-04-13 09:23:00,
2013-04-13 05:29:00,31.5,27.5,29.80,East,90,0.0,0.0,85,0.00,,,0.00,WUHU21623XXSP,2013-04-13 09:29:00,
2013-04-13 05:34:00,31.5,27.5,29.80,East,90,0.0,0.0,85,0.00,,,0.00,WUHU21623XXSP,2013-04-13 09:34:00,
2013-04-13 05:39:00,31.3,27.3,29.80,East,90,0.0,0.0,85,0.00,,,0.00,WUHU21623XXSP,2013-04-13 09:39:00,
2013-04-13 05:44:00,31.3,27.3,29.80,East,90,0.0,0.0,85,0.00,,,0.00,WUHU21623XXSP,2013-04-13 09:44:00,
2013-04-13 05:49:00,31.3,27.3,29.81,East,90,0.0,0.0,85,0.00,,,0.00,WUHU21623XXSP,2013-04-13 09:49:00,
2013-04-13 05:54:00,31.5,27.5,29.81,East,90,0.0,0.0,85,0.00,,,0.00,WUHU21623XXSP,2013-04-13 09:54:00,
2013-04-13 05:59:00,31.3,27.3,29.81,East,90,0.0,0.0,85,0.00,,,0.00,WUHU21623XXSP,2013-04-13 09:59:00,
2013-04-13 06:04:00,31.5,27.5,29.81,East,90,0.0,0.0,85,0.00,,,0.00,WUHU21623XXSP,2013-04-13 10:04:00,
2013-04-13 06:09:00,31.5,27.5,29.81,East,90,0.0,0.0,85,0.00,,,0.00,WUHU21623XXSP,2013-04-13 10:09:00,
2013-04-13 06:14:00,31.5,27.5,29.82,East,90,0.0,0.0,85,0.00,,,0.00,WUHU21623XXSP,2013-04-13 10:14:00,
2013-04-13 06:19:00,31.5,27.5,29.81,East,90,0.0,0.0,85,0.00,,,0.00,WUHU21623XXSP,2013-04-13 10:19:00,
2013-04-13 06:24:00,31.5,27.5,29.82,East,90,0.0,0.0,85,0.00,,,0.00,WUHU21623XXSP,2013-04-13 10:24:00,
2013-04-13 06:29:00,31.6,27.9,29.81,East,90,0.0,0.0,86,0.00,,,0.00,WUHU21623XXSP,2013-04-13 10:29:00,
2013-04-13 06:34:00,31.6,27.9,29.82,East,90,0.0,0.0,86,0.00,,,0.00,WUHU21623XXSP,2013-04-13 10:34:00,
2013-04-13 06:39:00,31.6,27.9,29.82,East,90,0.0,0.0,86,0.00,,,0.00,WUHU21623XXSP,2013-04-13 10:39:00,
2013-04-13 06:44:00,31.6,27.9,29.82,East,90,0.0,0.0,86,0.00,,,0.00,WUHU21623XXSP,2013-04-13 10:44:00,
2013-04-13 06:50:00,31.8,28.1,29.82,East,90,0.0,0.0,86,0.00,,,0.00,WUHU21623XXSP,2013-04-13 10:50:00,
2013-04-13 06:55:00,32.0,28.3,29.82,East,90,0.0,0.0,86,0.00,,,0.00,WUHU21623XXSP,2013-04-13 10:55:00,
2013-04-13 07:00:00,32.2,28.5,29.83,East,90,0.0,0.0,86,0.00,,,0.00,WUHU21623XXSP,2013-04-13 11:00:00,
2013-04-13 07:05:00,32.2,28.5,29.83,East,90,0.0,0.0,86,0.00,,,0.00,WUHU21623XXSP,2013-04-13 11:05:00,
2013-04-13 07:10:00,32.4,28.6,29.83,East,90,0.0,0.0,86,0.00,,,0.00,WUHU21623XXSP,2013-04-13 11:10:00,
2013-04-13 07:15:00,32.4,28.6,29.82,East,90,0.0,0.0,86,0.00,,,0.00,WUHU21623XXSP,2013-04-13 11:15:00,
2013-04-13 07:21:00,32.5,28.7,29.82,East,90,0.0,0.0,86,0.00,,,0.00,WUHU21623XXSP,2013-04-13 11:21:00,
2013-04-13 07:26:00,32.5,28.7,29.82,East,90,0.0,0.0,86,0.00,,,0.00,WUHU21623XXSP,2013-04-13 11:26:00,
2013-04-13 07:31:00,32.7,28.9,29.82,East,90,0.0,0.0,86,0.00,,,0.00,WUHU21623XXSP,2013-04-13 11:31:00,
2013-04-13 07:36:00,32.9,29.1,29.82,East,90,0.0,0.0,86,0.00,,,0.00,WUHU21623XXSP,2013-04-13 11:36:00,
2013-04-13 07:42:00,32.9,29.1,29.82,East,90,0.0,0.0,86,0.00,,,0.00,WUHU21623XXSP,2013-04-13 11:42:00,
2013-04-13 07:47:00,33.3,29.8,29.82,East,90,0.0,0.0,87,0.00,,,0.00,WUHU21623XXSP,2013-04-13 11:47:00,
2013-04-13 07:52:00,33.3,29.8,29.82,East,90,0.0,0.0,87,0.00,,,0.00,WUHU21623XXSP,2013-04-13 11:52:00,
2013-04-13 07:57:00,33.4,29.9,29.82,East,90,0.0,0.0,87,0.00,,,0.00,WUHU21623XXSP,2013-04-13 11:57:00,
2013-04-13 08:02:00,33.4,29.9,29.82,East,90,0.0,0.0,87,0.00,,,0.00,WUHU21623XXSP,2013-04-13 12:02:00,
2013-04-13 08:08:00,34.0,30.5,29.82,East,90,0.0,0.0,87,0.00,,,0.00,WUHU21623XXSP,2013-04-13 12:08:00,
2013-04-13 08:13:00,34.0,30.5,29.82,East,90,0.0,0.0,87,0.00,,,0.00,WUHU21623XXSP,2013-04-13 12:13:00,
2013-04-13 08:17:00,34.2,30.7,29.82,East,90,0.0,0.0,87,0.00,,,0.00,WUHU21623XXSP,2013-04-13 12:17:00,
2013-04-13 08:23:00,34.3,30.8,29.82,East,90,0.0,0.0,87,0.00,,,0.00,WUHU21623XXSP,2013-04-13 12:23:00,
2013-04-13 08:28:00,34.5,31.0,29.83,East,90,0.0,0.0,87,0.00,,,0.00,WUHU21623XXSP,2013-04-13 12:28:00,
2013-04-13 08:33:00,34.7,31.2,29.83,East,90,0.0,0.0,87,0.00,,,0.00,WUHU21623XXSP,2013-04-13 12:33:00,
2013-04-13 08:38:00,35.1,31.6,29.82,East,90,0.0,0.0,87,0.00,,,0.00,WUHU21623XXSP,2013-04-13 12:38:00,
2013-04-13 08:43:00,35.2,31.7,29.82,East,90,0.0,0.0,87,0.00,,,0.00,WUHU21623XXSP,2013-04-13 12:43:00,
2013-04-13 08:49:00,35.4,31.9,29.83,East,90,0.0,0.0,87,0.00,,,0.00,WUHU21623XXSP,2013-04-13 12:49:00,
2013-04-13 08:54:00,35.8,32.3,29.83,East,90,0.0,0.0,87,0.00,,,0.00,WUHU21623XXSP,2013-04-13 12:54:00,
2013-04-13 08:59:00,36.0,32.5,29.82,East,90,0.0,0.0,87,0.00,,,0.00,WUHU21623XXSP,2013-04-13 12:59:00,
2013-04-13 09:04:00,36.0,32.5,29.82,ESE,112,0.0,0.0,87,0.00,,,0.00,WUHU21623XXSP,2013-04-13 13:04:00,
2013-04-13 09:09:00,36.3,32.5,29.82,ESE,112,0.0,0.0,86,0.00,,,0.00,WUHU21623XXSP,2013-04-13 13:09:00,
2013-04-13 09:14:00,36.5,32.7,29.82,ESE,112,0.0,0.0,86,0.00,,,0.00,WUHU21623XXSP,2013-04-13 13:14:00,
2013-04-13 09:19:00,36.5,32.7,29.82,ESE,112,0.0,0.0,86,0.00,,,0.00,WUHU21623XXSP,2013-04-13 13:19:00,
2013-04-13 09:24:00,36.9,33.1,29.81,ESE,112,0.0,0.0,86,0.02,,,0.02,WUHU21623XXSP,2013-04-13 13:24:00,
2013-04-13 09:30:00,37.0,32.9,29.81,ESE,112,0.0,0.0,85,0.02,,,0.02,WUHU21623XXSP,2013-04-13 13:30:00,
2013-04-13 09:35:00,37.0,32.9,29.81,ESE,112,0.0,0.0,85,0.02,,,0.02,WUHU21623XXSP,2013-04-13 13:35:00,
2013-04-13 09:40:00,37.2,33.1,29.81,SSW,202,0.0,0.0,85,0.04,,,0.04,WUHU21623XXSP,2013-04-13 13:40:00,
2013-04-13 09:45:00,37.6,33.2,29.81,SSW,202,0.0,0.0,84,0.04,,,0.04,WUHU21623XXSP,2013-04-13 13:45:00,
2013-04-13 09:54:00,37.8,33.4,29.82,SW,225,0.0,0.0,84,0.04,,,0.04,WUHU21623XXSP,2013-04-13 13:54:00,
2013-04-13 10:03:00,37.9,33.2,29.81,SW,225,0.0,0.0,83,0.04,,,0.04,WUHU21623XXSP,2013-04-13 14:03:00,
2013-04-13 10:08:00,37.9,32.9,29.82,SW,225,0.0,0.0,82,0.04,,,0.04,WUHU21623XXSP,2013-04-13 14:08:00,
2013-04-13 10:13:00,38.1,33.1,29.81,SSW,202,0.0,0.0,82,0.04,,,0.04,WUHU21623XXSP,2013-04-13 14:13:00,
2013-04-13 10:18:00,38.3,33.0,29.81,SW,225,0.0,0.0,81,0.04,,,0.04,WUHU21623XXSP,2013-04-13 14:18:00,
2013-04-13 10:23:00,38.7,33.4,29.82,West,270,0.0,2.1,81,0.02,,,0.04,WUHU21623XXSP,2013-04-13 14:23:00,
2013-04-13 10:28:00,39.0,33.7,29.81,WSW,247,0.0,2.3,81,0.02,,,0.04,WUHU21623XXSP,2013-04-13 14:28:00,
2013-04-13 10:33:00,39.4,33.8,29.81,WSW,247,0.0,3.2,80,0.02,,,0.04,WUHU21623XXSP,2013-04-13 14:33:00,
2013-04-13 10:38:00,39.6,34.0,29.81,WSW,247,0.0,3.2,80,0.00,,,0.04,WUHU21623XXSP,2013-04-13 14:38:00,
2013-04-13 10:44:00,39.9,34.2,29.81,West,270,0.0,1.7,80,0.00,,,0.04,WUHU21623XXSP,2013-04-13 14:44:00,
2013-04-13 10:49:00,40.1,34.1,29.82,West,270,0.0,3.3,79,0.00,,,0.04,WUHU21623XXSP,2013-04-13 14:49:00,
2013-04-13 10:54:00,39.7,33.4,29.82,NE,45,0.0,3.3,78,0.00,,,0.04,WUHU21623XXSP,2013-04-13 14:54:00,
2013-04-13 10:59:00,39.7,33.1,29.82,NE,45,0.0,0.0,77,0.00,,,0.04,WUHU21623XXSP,2013-04-13 14:59:00,
2013-04-13 11:04:00,39.6,33.0,29.82,NE,45,0.0,2.8,77,0.00,,,0.04,WUHU21623XXSP,2013-04-13 15:04:00,
2013-04-13 11:09:00,39.9,33.3,29.82,NE,45,0.0,2.8,77,0.00,,,0.04,WUHU21623XXSP,2013-04-13 15:09:00,
2013-04-13 11:14:00,40.6,34.0,29.81,NE,45,0.0,1.1,77,0.00,,,0.04,WUHU21623XXSP,2013-04-13 15:14:00,
2013-04-13 11:19:00,41.4,34.8,29.82,WNW,292,0.0,0.0,77,0.00,,,0.04,WUHU21623XXSP,2013-04-13 15:19:00,
2013-04-13 11:24:00,41.9,34.9,29.81,West,270,1.0,2.9,76,0.00,,,0.04,WUHU21623XXSP,2013-04-13 15:24:00,
2013-04-13 11:29:00,42.3,35.0,29.81,WSW,247,0.0,2.9,75,0.00,,,0.04,WUHU21623XXSP,2013-04-13 15:29:00,
2013-04-13 11:34:00,42.4,34.8,29.82,West,270,2.5,3.0,74,0.00,,,0.04,WUHU21623XXSP,2013-04-13 15:34:00,
2013-04-13 11:39:00,42.6,35.0,29.81,SW,225,0.9,3.0,74,0.00,,,0.04,WUHU21623XXSP,2013-04-13 15:39:00,
2013-04-13 11:45:00,43.2,35.5,29.81,West,270,0.0,2.8,74,0.00,,,0.04,WUHU21623XXSP,2013-04-13 15:45:00,
2013-04-13 11:50:00,43.7,35.3,29.81,West,270,0.0,4.1,72,0.00,,,0.04,WUHU21623XXSP,2013-04-13 15:50:00,
2013-04-13 11:55:00,43.9,35.5,29.81,ENE,67,0.0,4.1,72,0.00,,,0.04,WUHU21623XXSP,2013-04-13 15:55:00,
2013-04-13 12:00:00,43.9,35.2,29.81,WNW,292,0.0,2.7,71,0.00,,,0.04,WUHU21623XXSP,2013-04-13 16:00:00,
2013-04-13 12:05:00,44.2,35.5,29.81,West,270,0.0,3.9,71,0.00,,,0.04,WUHU21623XXSP,2013-04-13 16:05:00,
2013-04-13 12:10:00,44.8,35.7,29.81,SW,225,1.9,3.9,70,0.00,,,0.04,WUHU21623XXSP,2013-04-13 16:10:00,
2013-04-13 12:15:00,44.8,35.7,29.81,NNE,22,0.0,3.9,70,0.00,,,0.04,WUHU21623XXSP,2013-04-13 16:15:00,
2013-04-13 12:20:00,45.1,36.0,29.81,West,270,2.4,3.3,70,0.00,,,0.04,WUHU21623XXSP,2013-04-13 16:20:00,
2013-04-13 12:25:00,45.1,35.6,29.81,West,270,0.0,4.4,69,0.00,,,0.04,WUHU21623XXSP,2013-04-13 16:25:00,
2013-04-13 12:30:00,45.3,35.8,29.81,West,270,0.0,4.4,69,0.00,,,0.04,WUHU21623XXSP,2013-04-13 16:30:00,
2013-04-13 12:35:00,45.5,36.0,29.81,East,90,0.0,3.0,69,0.00,,,0.04,WUHU21623XXSP,2013-04-13 16:35:00,
2013-04-13 12:40:00,45.3,35.5,29.81,West,270,0.0,2.5,68,0.00,,,0.04,WUHU21623XXSP,2013-04-13 16:40:00,
2013-04-13 12:45:00,46.0,36.1,29.81,West,270,0.0,2.5,68,0.00,,,0.04,WUHU21623XXSP,2013-04-13 16:45:00,
2013-04-13 12:50:00,46.2,35.9,29.81,West,270,1.3,2.4,67,0.00,,,0.04,WUHU21623XXSP,2013-04-13 16:50:00,
2013-04-13 12:55:00,46.9,36.6,29.80,South,180,2.7,2.8,67,0.00,,,0.04,WUHU21623XXSP,2013-04-13 16:55:00,
2013-04-13 13:00:00,47.8,37.1,29.80,SW,225,1.1,2.8,66,0.00,,,0.04,WUHU21623XXSP,2013-04-13 17:00:00,
2013-04-13 13:05:00,48.7,38.3,29.80,WSW,247,2.1,3.7,67,0.00,,,0.04,WUHU21623XXSP,2013-04-13 17:05:00,
2013-04-13 13:10:00,49.1,38.3,29.80,NE,45,0.0,3.7,66,0.00,,,0.04,WUHU21623XXSP,2013-04-13 17:10:00,
2013-04-13 13:15:00,49.5,37.9,29.80,ENE,67,0.0,4.2,64,0.00,,,0.04,WUHU21623XXSP,2013-04-13 17:15:00,
2013-04-13 13:20:00,49.1,37.1,29.80,West,270,0.0,4.2,63,0.00,,,0.04,WUHU21623XXSP,2013-04-13 17:20:00,
2013-04-13 13:26:00,49.1,37.1,29.79,WSW,247,0.0,2.6,63,0.00,,,0.04,WUHU21623XXSP,2013-04-13 17:26:00,
2013-04-13 13:31:00,49.6,37.6,29.78,NE,45,0.0,6.8,63,0.00,,,0.04,WUHU21623XXSP,2013-04-13 17:31:00,
2013-04-13 13:36:00,50.5,38.5,29.79,SW,225,0.5,6.8,63,0.00,,,0.04,WUHU21623XXSP,2013-04-13 17:36:00,
2013-04-13 13:42:00,50.7,38.3,29.79,WSW,247,4.3,5.6,62,0.00,,,0.04,WUHU21623XXSP,2013-04-13 17:42:00,
2013-04-13 13:47:00,50.2,37.4,29.79,West,270,0.0,5.6,61,0.00,,,0.04,WUHU21623XXSP,2013-04-13 17:47:00,
2013-04-13 13:52:00,49.6,36.4,29.78,SW,225,0.0,5.0,60,0.00,,,0.04,WUHU21623XXSP,2013-04-13 17:52:00,
2013-04-13 13:58:00,50.2,36.5,29.78,West,270,0.0,8.8,59,0.00,,,0.04,WUHU21623XXSP,2013-04-13 17:58:00,
2013-04-13 14:03:00,50.2,36.1,29.78,SSW,202,5.9,8.8,58,0.00,,,0.04,WUHU21623XXSP,2013-04-13 18:03:00,
2013-04-13 14:08:00,50.7,37.0,29.78,WSW,247,7.6,9.3,59,0.00,,,0.04,WUHU21623XXSP,2013-04-13 18:08:00,
2013-04-13 14:13:00,50.7,36.1,29.78,SW,225,2.2,11.1,57,0.00,,,0.04,WUHU21623XXSP,2013-04-13 18:13:00,
2013-04-13 14:18:00,50.9,35.8,29.78,SSW,202,8.1,11.7,56,0.00,,,0.04,WUHU21623XXSP,2013-04-13 18:18:00,
2013-04-13 14:23:00,51.4,36.3,29.78,WNW,292,0.0,11.7,56,0.00,,,0.04,WUHU21623XXSP,2013-04-13 18:23:00,
2013-04-13 14:27:00,51.4,35.8,29.78,ESE,112,0.0,11.7,55,0.00,,,0.04,WUHU21623XXSP,2013-04-13 18:27:00,
2013-04-13 14:32:00,51.3,35.7,29.78,WSW,247,5.5,10.2,55,0.00,,,0.04,WUHU21623XXSP,2013-04-13 18:32:00,
2013-04-13 14:37:00,50.9,34.4,29.78,West,270,1.0,10.2,53,0.00,,,0.04,WUHU21623XXSP,2013-04-13 18:37:00,
2013-04-13 14:42:00,51.1,35.1,29.78,WSW,247,1.6,9.2,54,0.00,,,0.04,WUHU21623XXSP,2013-04-13 18:42:00,
2013-04-13 14:47:00,50.9,34.9,29.78,SW,225,3.6,7.6,54,0.00,,,0.04,WUHU21623XXSP,2013-04-13 18:47:00,
2013-04-13 14:53:00,50.7,34.2,29.78,WSW,247,3.8,5.9,53,0.00,,,0.04,WUHU21623XXSP,2013-04-13 18:53:00,
2013-04-13 14:58:00,50.5,34.5,29.78,ENE,67,0.0,5.9,54,0.00,,,0.04,WUHU21623XXSP,2013-04-13 18:58:00,
2013-04-13 15:03:00,50.5,34.5,29.77,SW,225,0.0,4.8,54,0.00,,,0.04,WUHU21623XXSP,2013-04-13 19:03:00,
2013-04-13 15:08:00,51.4,35.8,29.77,SW,225,1.0,3.4,55,0.00,,,0.04,WUHU21623XXSP,2013-04-13 19:08:00,
2013-04-13 15:13:00,52.2,36.1,29.77,WSW,247,0.0,2.7,54,0.00,,,0.04,WUHU21623XXSP,2013-04-13 19:13:00,
2013-04-13 15:18:00,53.1,36.4,29.76,WSW,247,2.8,4.9,53,0.00,,,0.04,WUHU21623XXSP,2013-04-13 19:18:00,
2013-04-13 15:23:00,53.8,37.1,29.77,SSW,202,0.0,4.9,53,0.00,,,0.04,WUHU21623XXSP,2013-04-13 19:23:00,
2013-04-13 15:28:00,54.1,36.9,29.76,NNW,337,0.8,5.8,52,0.00,,,0.04,WUHU21623XXSP,2013-04-13 19:28:00,
2013-04-13 15:33:00,54.0,36.3,29.77,WSW,247,2.8,8.2,51,0.00,,,0.04,WUHU21623XXSP,2013-04-13 19:33:00,
2013-04-13 15:38:00,53.4,35.2,29.76,WSW,247,0.6,8.2,50,0.00,,,0.04,WUHU21623XXSP,2013-04-13 19:38:00,
2013-04-13 15:43:00,52.7,34.6,29.76,WSW,247,0.0,5.0,50,0.00,,,0.04,WUHU21623XXSP,2013-04-13 19:43:00,
2013-04-13 15:48:00,52.2,34.6,29.76,NE,45,0.0,2.1,51,0.00,,,0.04,WUHU21623XXSP,2013-04-13 19:48:00,
2013-04-13 15:53:00,52.0,34.4,29.76,ENE,67,0.0,4.0,51,0.00,,,0.04,WUHU21623XXSP,2013-04-13 19:53:00,
2013-04-13 15:58:00,51.6,33.5,29.76,ENE,67,0.0,4.1,50,0.00,,,0.04,WUHU21623XXSP,2013-04-13 19:58:00,
2013-04-13 16:03:00,51.3,33.3,29.76,SSW,202,0.0,4.1,50,0.00,,,0.04,WUHU21623XXSP,2013-04-13 20:03:00,
2013-04-13 16:08:00,51.1,33.1,29.76,SSW,202,0.0,2.0,50,0.00,,,0.04,WUHU21623XXSP,2013-04-13 20:08:00,
2013-04-13 16:13:00,51.4,33.9,29.76,SSW,202,0.0,0.0,51,0.00,,,0.04,WUHU21623XXSP,2013-04-13 20:13:00,
2013-04-13 16:18:00,52.0,34.4,29.76,East,90,0.0,3.6,51,0.00,,,0.04,WUHU21623XXSP,2013-04-13 20:18:00,
2013-04-13 16:23:00,52.5,34.9,29.76,WSW,247,1.9,3.6,51,0.00,,,0.04,WUHU21623XXSP,2013-04-13 20:23:00,
2013-04-13 16:28:00,52.5,34.4,29.76,WSW,247,0.0,2.5,50,0.00,,,0.04,WUHU21623XXSP,2013-04-13 20:28:00,
2013-04-13 16:33:00,52.2,34.1,29.76,NE,45,0.0,2.0,50,0.00,,,0.04,WUHU21623XXSP,2013-04-13 20:33:00,
2013-04-13 16:38:00,51.8,33.7,29.77,ENE,67,2.3,4.4,50,0.00,,,0.04,WUHU21623XXSP,2013-04-13 20:38:00,
2013-04-13 16:43:00,51.3,33.3,29.77,East,90,0.0,4.4,50,0.00,,,0.04,WUHU21623XXSP,2013-04-13 20:43:00,
2013-04-13 16:48:00,51.1,33.1,29.77,East,90,0.0,2.6,50,0.00,,,0.04,WUHU21623XXSP,2013-04-13 20:48:00,
2013-04-13 16:53:00,50.9,32.9,29.77,East,90,0.0,1.7,50,0.00,,,0.04,WUHU21623XXSP,2013-04-13 20:53:00,
2013-04-13 16:58:00,50.7,33.2,29.77,East,90,0.0,0.0,51,0.00,,,0.04,WUHU21623XXSP,2013-04-13 20:58:00,
2013-04-13 17:03:00,50.4,33.9,29.78,East,90,0.0,0.0,53,0.00,,,0.04,WUHU21623XXSP,2013-04-13 21:03:00,
2013-04-13 17:08:00,49.6,33.7,29.78,East,90,0.0,0.0,54,0.00,,,0.04,WUHU21623XXSP,2013-04-13 21:08:00,
2013-04-13 17:13:00,49.6,34.1,29.78,East,90,0.0,0.0,55,0.00,,,0.04,WUHU21623XXSP,2013-04-13 21:13:00,
2013-04-13 17:18:00,49.1,34.1,29.78,East,90,0.0,0.0,56,0.00,,,0.04,WUHU21623XXSP,2013-04-13 21:18:00,
2013-04-13 17:23:00,49.1,34.6,29.79,East,90,0.0,0.0,57,0.00,,,0.04,WUHU21623XXSP,2013-04-13 21:23:00,
2013-04-13 17:28:00,49.1,34.6,29.79,East,90,0.0,0.0,57,0.00,,,0.04,WUHU21623XXSP,2013-04-13 21:28:00,
2013-04-13 17:33:00,49.1,35.5,29.79,East,90,0.0,0.0,59,0.00,,,0.04,WUHU21623XXSP,2013-04-13 21:33:00,
2013-04-13 17:38:00,49.1,35.0,29.80,East,90,0.0,0.0,58,0.00,,,0.04,WUHU21623XXSP,2013-04-13 21:38:00,
2013-04-13 17:43:00,49.3,35.2,29.80,ESE,112,0.0,0.0,58,0.00,,,0.04,WUHU21623XXSP,2013-04-13 21:43:00,
2013-04-13 17:48:00,49.1,35.5,29.80,ESE,112,0.0,0.0,59,0.00,,,0.04,WUHU21623XXSP,2013-04-13 21:48:00,
2013-04-13 17:53:00,48.9,35.7,29.80,ESE,112,0.0,0.0,60,0.00,,,0.04,WUHU21623XXSP,2013-04-13 21:53:00,
2013-04-13 17:58:00,48.4,35.7,29.81,ESE,112,0.0,0.0,61,0.00,,,0.04,WUHU21623XXSP,2013-04-13 21:58:00,
2013-04-13 18:03:00,47.8,35.1,29.81,ESE,112,3.5,4.1,61,0.00,,,0.04,WUHU21623XXSP,2013-04-13 22:03:00,
2013-04-13 18:08:00,47.5,35.2,29.82,NE,45,0.0,4.1,62,0.00,,,0.04,WUHU21623XXSP,2013-04-13 22:08:00,
2013-04-13 18:13:00,47.1,35.2,29.82,WNW,292,0.0,4.1,63,0.00,,,0.04,WUHU21623XXSP,2013-04-13 22:13:00,
2013-04-13 18:18:00,46.8,35.0,29.82,NW,315,0.0,3.2,63,0.00,,,0.04,WUHU21623XXSP,2013-04-13 22:18:00,
2013-04-13 18:23:00,46.6,34.8,29.82,NW,315,0.0,3.2,63,0.00,,,0.04,WUHU21623XXSP,2013-04-13 22:23:00,
2013-04-13 18:28:00,46.2,34.4,29.82,WNW,292,0.0,3.2,63,0.00,,,0.04,WUHU21623XXSP,2013-04-13 22:28:00,
2013-04-13 18:33:00,46.0,34.2,29.83,NW,315,0.0,3.2,63,0.00,,,0.04,WUHU21623XXSP,2013-04-13 22:33:00,
2013-04-13 18:38:00,45.9,34.1,29.83,WNW,292,0.0,3.1,63,0.00,,,0.04,WUHU21623XXSP,2013-04-13 22:38:00,
2013-04-13 18:43:00,45.5,33.7,29.83,NW,315,0.0,3.8,63,0.00,,,0.04,WUHU21623XXSP,2013-04-13 22:43:00,
2013-04-13 18:48:00,45.3,33.5,29.83,NE,45,0.0,3.8,63,0.00,,,0.04,WUHU21623XXSP,2013-04-13 22:48:00,
2013-04-13 18:53:00,45.1,33.3,29.83,NE,45,0.0,2.8,63,0.00,,,0.04,WUHU21623XXSP,2013-04-13 22:53:00,
2013-04-13 18:58:00,45.0,33.2,29.83,ENE,67,0.0,2.4,63,0.00,,,0.04,WUHU21623XXSP,2013-04-13 22:58:00,
2013-04-13 19:03:00,45.0,33.2,29.83,ENE,67,0.0,3.4,63,0.00,,,0.04,WUHU21623XXSP,2013-04-13 23:03:00,
2013-04-13 19:08:00,44.8,33.1,29.83,SE,135,0.0,5.1,63,0.00,,,0.04,WUHU21623XXSP,2013-04-13 23:08:00,
2013-04-13 19:13:00,44.6,32.9,29.83,ESE,112,0.0,5.1,63,0.00,,,0.04,WUHU21623XXSP,2013-04-13 23:13:00,
2013-04-13 19:18:00,44.2,32.9,29.83,ESE,112,0.0,0.0,64,0.00,,,0.04,WUHU21623XXSP,2013-04-13 23:18:00,
2013-04-13 19:23:00,44.2,32.9,29.83,ESE,112,0.0,0.0,64,0.00,,,0.04,WUHU21623XXSP,2013-04-13 23:23:00,
2013-04-13 19:28:00,44.2,32.9,29.83,SW,225,0.0,2.2,64,0.00,,,0.04,WUHU21623XXSP,2013-04-13 23:28:00,
2013-04-13 19:33:00,43.9,33.0,29.84,WSW,247,0.0,2.2,65,0.00,,,0.04,WUHU21623XXSP,2013-04-13 23:33:00,
2013-04-13 19:38:00,43.5,32.6,29.84,WSW,247,0.0,0.0,65,0.00,,,0.04,WUHU21623XXSP,2013-04-13 23:38:00,
2013-04-13 19:43:00,43.2,32.7,29.84,WSW,247,0.0,0.0,66,0.00,,,0.04,WUHU21623XXSP,2013-04-13 23:43:00,
2013-04-13 19:48:00,43.0,32.9,29.84,WSW,247,0.0,0.0,67,0.00,,,0.04,WUHU21623XXSP,2013-04-13 23:48:00,
2013-04-13 19:53:00,42.6,32.5,29.84,WSW,247,0.0,0.0,67,0.00,,,0.04,WUHU21623XXSP,2013-04-13 23:53:00,
2013-04-13 19:58:00,42.4,32.7,29.85,WSW,247,0.0,0.0,68,0.00,,,0.04,WUHU21623XXSP,2013-04-13 23:58:00,
2013-04-13 20:03:00,42.3,32.6,29.85,WSW,247,0.0,1.9,68,0.00,,,0.04,WUHU21623XXSP,2013-04-14 00:03:00,
2013-04-13 20:08:00,42.3,32.6,29.86,WSW,247,1.5,1.9,68,0.00,,,0.04,WUHU21623XXSP,2013-04-14 00:08:00,
2013-04-13 20:13:00,42.3,32.9,29.85,WSW,247,2.3,2.8,69,0.00,,,0.04,WUHU21623XXSP,2013-04-14 00:13:00,
2013-04-13 20:19:00,42.1,32.7,29.85,WSW,247,0.0,2.8,69,0.00,,,0.04,WUHU21623XXSP,2013-04-14 00:19:00,
2013-04-13 20:24:00,41.9,32.6,29.86,WSW,247,0.0,3.1,69,0.00,,,0.04,WUHU21623XXSP,2013-04-14 00:24:00,
2013-04-13 20:29:00,41.9,32.6,29.85,West,270,3.7,3.9,69,0.00,,,0.04,WUHU21623XXSP,2013-04-14 00:29:00,
2013-04-13 20:34:00,42.4,33.4,29.86,WSW,247,2.9,4.2,70,0.00,,,0.04,WUHU21623XXSP,2013-04-14 00:34:00,
2013-04-13 20:39:00,42.6,33.6,29.86,WSW,247,0.3,4.3,70,0.00,,,0.04,WUHU21623XXSP,2013-04-14 00:39:00,
2013-04-13 20:44:00,43.0,33.6,29.86,West,270,0.0,4.3,69,0.00,,,0.04,WUHU21623XXSP,2013-04-14 00:44:00,
2013-04-13 20:49:00,43.0,33.2,29.86,West,270,0.0,3.4,68,0.00,,,0.04,WUHU21623XXSP,2013-04-14 00:49:00,
2013-04-13 20:54:00,43.2,33.4,29.86,WSW,247,0.0,3.7,68,0.00,,,0.04,WUHU21623XXSP,2013-04-14 00:54:00,
2013-04-13 20:59:00,43.0,33.2,29.86,West,270,0.0,4.3,68,0.00,,,0.04,WUHU21623XXSP,2013-04-14 00:59:00,
2013-04-13 21:04:00,43.2,33.1,29.86,WSW,247,0.0,4.9,67,0.00,,,0.04,WUHU21623XXSP,2013-04-14 01:04:00,
2013-04-13 21:09:00,43.2,33.1,29.86,WSW,247,0.0,4.9,67,0.00,,,0.04,WUHU21623XXSP,2013-04-14 01:09:00,
2013-04-13 21:14:00,43.2,33.1,29.86,West,270,0.0,4.0,67,0.00,,,0.04,WUHU21623XXSP,2013-04-14 01:14:00,
2013-04-13 21:19:00,43.0,32.9,29.87,West,270,1.2,4.0,67,0.00,,,0.04,WUHU21623XXSP,2013-04-14 01:19:00,
2013-04-13 21:24:00,43.0,32.9,29.87,West,270,0.0,2.6,67,0.00,,,0.04,WUHU21623XXSP,2013-04-14 01:24:00,
2013-04-13 21:29:00,43.0,32.9,29.87,West,270,0.0,2.1,67,0.00,,,0.04,WUHU21623XXSP,2013-04-14 01:29:00,
2013-04-13 21:34:00,43.0,32.9,29.87,West,270,0.0,1.8,67,0.00,,,0.04,WUHU21623XXSP,2013-04-14 01:34:00,
2013-04-13 21:39:00,42.6,32.5,29.87,West,270,0.0,1.8,67,0.00,,,0.04,WUHU21623XXSP,2013-04-14 01:39:00,
2013-04-13 21:44:00,42.4,32.3,29.88,West,270,0.0,0.0,67,0.00,,,0.04,WUHU21623XXSP,2013-04-14 01:44:00,
2013-04-13 21:49:00,42.3,32.2,29.88,West,270,0.0,1.0,67,0.00,,,0.04,WUHU21623XXSP,2013-04-14 01:49:00,
2013-04-13 21:54:00,41.9,32.2,29.88,West,270,0.0,1.0,68,0.00,,,0.04,WUHU21623XXSP,2013-04-14 01:54:00,
2013-04-13 21:59:00,41.7,32.0,29.88,NE,45,0.0,3.5,68,0.00,,,0.04,WUHU21623XXSP,2013-04-14 01:59:00,
2013-04-13 22:04:00,41.7,32.7,29.88,NW,315,0.0,3.5,70,0.00,,,0.04,WUHU21623XXSP,2013-04-14 02:04:00,
2013-04-13 22:09:00,41.7,33.1,29.88,WSW,247,1.2,3.1,71,0.00,,,0.04,WUHU21623XXSP,2013-04-14 02:09:00,
2013-04-13 22:14:00,41.9,33.3,29.88,WSW,247,0.7,3.1,71,0.00,,,0.04,WUHU21623XXSP,2013-04-14 02:14:00,
2013-04-13 22:19:00,41.7,33.4,29.89,WSW,247,1.8,2.9,72,0.00,,,0.04,WUHU21623XXSP,2013-04-14 02:19:00,
2013-04-13 22:24:00,41.5,33.2,29.89,SW,225,1.9,3.5,72,0.00,,,0.04,WUHU21623XXSP,2013-04-14 02:24:00,
2013-04-13 22:29:00,41.2,32.9,29.89,SW,225,0.0,3.5,72,0.00,,,0.04,WUHU21623XXSP,2013-04-14 02:29:00,
2013-04-13 22:34:00,41.0,32.7,29.89,SW,225,0.0,3.0,72,0.00,,,0.04,WUHU21623XXSP,2013-04-14 02:34:00,
2013-04-13 22:39:00,40.6,32.7,29.89,SW,225,1.0,1.5,73,0.00,,,0.04,WUHU21623XXSP,2013-04-14 02:39:00,
2013-04-13 22:44:00,40.6,32.7,29.89,SW,225,2.0,2.9,73,0.00,,,0.04,WUHU21623XXSP,2013-04-14 02:44:00,
2013-04-13 22:49:00,40.5,32.9,29.89,West,270,1.2,3.3,74,0.00,,,0.04,WUHU21623XXSP,2013-04-14 02:49:00,
2013-04-13 22:54:00,40.5,32.9,29.89,WSW,247,1.6,4.2,74,0.00,,,0.04,WUHU21623XXSP,2013-04-14 02:54:00,
2013-04-13 22:59:00,40.5,33.3,29.89,WSW,247,0.0,4.2,75,0.00,,,0.04,WUHU21623XXSP,2013-04-14 02:59:00,
2013-04-13 23:04:00,40.5,33.3,29.89,SSW,202,0.0,4.4,75,0.00,,,0.04,WUHU21623XXSP,2013-04-14 03:04:00,
2013-04-13 23:09:00,40.5,33.3,29.90,SSW,202,0.0,4.4,75,0.00,,,0.04,WUHU21623XXSP,2013-04-14 03:09:00,
2013-04-13 23:14:00,40.6,33.4,29.90,West,270,1.5,1.5,75,0.00,,,0.04,WUHU21623XXSP,2013-04-14 03:14:00,
2013-04-13 23:19:00,40.6,33.4,29.90,West,270,0.0,2.3,75,0.00,,,0.04,WUHU21623XXSP,2013-04-14 03:19:00,
2013-04-13 23:24:00,40.6,33.4,29.90,West,270,0.0,2.3,75,0.00,,,0.04,WUHU21623XXSP,2013-04-14 03:24:00,
2013-04-13 23:29:00,40.6,33.7,29.90,West,270,0.0,1.5,76,0.00,,,0.04,WUHU21623XXSP,2013-04-14 03:29:00,
2013-04-13 23:34:00,40.6,33.7,29.90,West,270,0.0,1.4,76,0.00,,,0.04,WUHU21623XXSP,2013-04-14 03:34:00,
2013-04-13 23:39:00,40.5,33.6,29.90,WNW,292,2.5,2.5,76,0.00,,,0.04,WUHU21623XXSP,2013-04-14 03:39:00,
2013-04-13 23:44:00,40.6,33.7,29.90,WNW,292,0.0,3.4,76,0.00,,,0.04,WUHU21623XXSP,2013-04-14 03:44:00,
2013-04-13 23:49:00,40.6,33.7,29.90,WNW,292,0.0,3.4,76,0.00,,,0.04,WUHU21623XXSP,2013-04-14 03:49:00,
2013-04-13 23:54:00,40.5,33.6,29.90,WNW,292,0.0,1.6,76,0.00,,,0.04,WUHU21623XXSP,2013-04-14 03:54:00,
2013-04-13 23:59:00,40.5,33.6,29.90,WNW,292,0.0,2.9,76,0.00,,,0.04,WUHU21623XXSP,2013-04-14 03:59:00,